Time;durP1;ratioP1;P1;durP2;ratioP2;P2;SDS_P1;SDS_P2;PMS_P1;PMS_P2;Temp;Humidity;BMP_temperature;BMP_pressure;BME280_temperature;BME280_humidity;BME280_pressure;Samples;Min_cycle;Max_cycle;Signal;HPM_P1;HPM_P2
2023/11/22 00:01:34;;;;;;;1.25;1.15;;;;;;;1.34;73.28;101864.94;5067123;28;20080;-70
2023/11/22 00:04:00;;;;;;;0.85;0.85;;;;;;;1.29;73.29;101861.25;5049464;28;20025;-69
2023/11/22 00:06:27;;;;;;;0.98;0.98;;;;;;;1.25;73.17;101859.31;5049344;28;20392;-70
2023/11/22 00:08:52;;;;;;;1.00;0.95;;;;;;;1.18;73.39;101864.09;5049076;28;20454;-69
2023/11/22 00:11:18;;;;;;;1.55;0.75;;;;;;;1.16;73.42;101864.81;5066802;28;20493;-69
2023/11/22 00:13:43;;;;;;;0.77;0.70;;;;;;;1.15;73.51;101863.91;5048773;28;20028;-70
2023/11/22 00:16:09;;;;;;;3.45;1.25;;;;;;;1.07;73.59;101865.22;5067023;28;20040;-70
2023/11/22 00:18:37;;;;;;;1.27;1.17;;;;;;;0.99;73.78;101864.78;5066867;28;20024;-69
2023/11/22 00:21:03;;;;;;;1.23;1.23;;;;;;;0.97;73.91;101863.81;5066625;28;20028;-69
2023/11/22 00:23:29;;;;;;;0.40;0.40;;;;;;;0.98;73.88;101852.78;5048875;28;20025;-69
2023/11/22 00:25:56;;;;;;;0.50;0.50;;;;;;;0.90;74.11;101848.91;5049026;28;20021;-69
2023/11/22 00:28:22;;;;;;;0.80;0.77;;;;;;;0.89;74.38;101844.59;5066670;28;20032;-69
2023/11/22 00:30:48;;;;;;;0.60;0.60;;;;;;;0.82;74.44;101833.16;5066709;28;20108;-69
2023/11/22 00:33:14;;;;;;;0.82;0.82;;;;;;;0.87;74.60;101839.41;5048594;28;20092;-69
2023/11/22 00:35:39;;;;;;;0.65;0.63;;;;;;;0.84;74.50;101840.13;5066423;28;20045;-70
2023/11/22 00:38:05;;;;;;;0.68;0.68;;;;;;;0.79;74.83;101822.75;5066550;28;20025;-69
2023/11/22 00:40:30;;;;;;;0.47;0.47;;;;;;;0.66;74.93;101819.53;5066443;28;20027;-70
2023/11/22 00:42:56;;;;;;;0.95;0.68;;;;;;;0.77;75.09;101838.03;5048534;28;20025;-70
2023/11/22 00:45:21;;;;;;;1.10;1.10;;;;;;;0.81;75.21;101839.06;5048182;28;20131;-70
2023/11/22 00:47:48;;;;;;;0.50;0.50;;;;;;;0.78;75.15;101829.56;5066194;28;20104;-70
2023/11/22 00:50:13;;;;;;;4.68;1.10;;;;;;;0.80;75.05;101820.28;5066446;28;20104;-70
2023/11/22 00:52:39;;;;;;;0.73;0.73;;;;;;;0.78;75.41;101815.91;5066080;28;20036;-70
2023/11/22 00:55:05;;;;;;;1.13;1.08;;;;;;;0.73;75.58;101805.44;5066223;28;20107;-70
2023/11/22 00:57:30;;;;;;;0.50;0.50;;;;;;;0.73;75.55;101808.88;5048051;28;20033;-70
2023/11/22 00:59:56;;;;;;;0.68;0.68;;;;;;;0.69;75.83;101804.38;5066187;28;20108;-70
2023/11/22 01:02:21;;;;;;;0.60;0.60;;;;;;;0.69;75.94;101798.38;5065984;28;20017;-71
2023/11/22 01:04:46;;;;;;;0.55;0.55;;;;;;;0.67;75.53;101803.41;5066150;28;20041;-70
2023/11/22 01:07:12;;;;;;;0.50;0.50;;;;;;;0.63;76.07;101808.25;5047015;28;20385;-70
2023/11/22 01:09:37;;;;;;;1.85;0.88;;;;;;;0.63;76.04;101811.69;5065833;28;20020;-69
2023/11/22 01:12:03;;;;;;;1.30;0.85;;;;;;;0.56;76.26;101813.03;5065501;28;20052;-70
2023/11/22 01:14:28;;;;;;;0.45;0.45;;;;;;;0.56;76.23;101812.16;5065681;28;20016;-70
2023/11/22 01:16:54;;;;;;;0.50;0.50;;;;;;;0.53;76.45;101804.34;5065420;28;20016;-69
2023/11/22 01:19:19;;;;;;;0.82;0.82;;;;;;;0.56;76.37;101812.16;5047504;28;20032;-70
2023/11/22 01:21:45;;;;;;;0.50;0.50;;;;;;;0.53;76.57;101817.97;5065499;28;20025;-69
2023/11/22 01:24:11;;;;;;;0.57;0.57;;;;;;;0.54;76.50;101819.75;5065577;28;20025;-69
2023/11/22 01:26:36;;;;;;;0.60;0.60;;;;;;;0.52;76.74;101825.56;5065491;28;20045;-70
2023/11/22 01:29:02;;;;;;;0.50;0.50;;;;;;;0.58;76.60;101831.00;5047553;28;20120;-70
2023/11/22 01:31:28;;;;;;;0.68;0.68;;;;;;;0.59;76.62;101822.56;5047219;28;20028;-69
2023/11/22 01:33:54;;;;;;;1.10;1.10;;;;;;;0.58;76.68;101825.91;5065076;28;20051;-69
2023/11/22 01:36:20;;;;;;;4.68;0.63;;;;;;;0.53;76.80;101820.53;5064965;28;20032;-69
2023/11/22 01:38:46;;;;;;;0.47;0.47;;;;;;;0.57;76.83;101824.16;5047479;28;20029;-70
2023/11/22 01:41:13;;;;;;;0.50;0.50;;;;;;;0.44;76.86;101802.13;5067670;28;20037;-70
2023/11/22 01:43:39;;;;;;;0.50;0.50;;;;;;;0.63;76.60;101829.59;5066004;28;20552;-70
2023/11/22 01:46:06;;;;;;;2.35;0.88;;;;;;;0.58;76.85;101828.44;5065183;28;20025;-70
2023/11/22 01:48:32;;;;;;;1.27;1.17;;;;;;;0.58;76.93;101816.56;5047032;28;20021;-70
2023/11/22 01:50:57;;;;;;;0.93;0.93;;;;;;;0.54;76.81;101808.63;5065355;28;20035;-70
2023/11/22 01:53:24;;;;;;;0.60;0.60;;;;;;;0.57;77.15;101819.03;5065291;28;20047;-71
2023/11/22 01:55:50;;;;;;;0.57;0.57;;;;;;;0.51;77.06;101795.69;5065066;28;20103;-70
2023/11/22 01:58:16;;;;;;;0.50;0.50;;;;;;;0.56;76.97;101801.94;5065009;28;20032;-71
2023/11/22 02:00:51;;;;;;;2.17;1.67;;;;;;;0.50;77.42;101810.13;5064619;28;20021;-71
2023/11/22 02:03:17;;;;;;;3.25;1.23;;;;;;;0.54;77.30;101793.31;5065084;28;20019;-70
2023/11/22 02:05:44;;;;;;;1.40;0.63;;;;;;;0.55;77.25;101807.84;5046941;28;20636;-70
2023/11/22 02:08:10;;;;;;;0.75;0.75;;;;;;;0.48;77.30;101787.06;5047131;28;20517;-69
2023/11/22 02:10:36;;;;;;;0.63;0.63;;;;;;;0.49;77.35;101790.50;5046803;28;20037;-70
2023/11/22 02:13:04;;;;;;;1.40;1.25;;;;;;;0.47;77.10;101787.84;5064618;28;20025;-70
2023/11/22 02:15:30;;;;;;;0.50;0.50;;;;;;;0.49;77.46;101793.06;5064878;28;20448;-70
2023/11/22 02:17:57;;;;;;;0.50;0.50;;;;;;;0.47;77.46;101798.06;5064661;28;20028;-70
2023/11/22 02:20:22;;;;;;;0.47;0.47;;;;;;;0.41;77.61;101791.75;5046784;28;20047;-70
2023/11/22 02:22:48;;;;;;;1.42;1.33;;;;;;;0.45;77.62;101797.09;5064679;28;20025;-70
2023/11/22 02:25:15;;;;;;;1.10;1.10;;;;;;;0.35;77.89;101787.19;5065002;28;20388;-69
2023/11/22 02:27:40;;;;;;;0.57;0.57;;;;;;;0.47;77.97;101797.19;5046568;28;20021;-69
2023/11/22 02:30:06;;;;;;;0.93;0.93;;;;;;;0.51;77.95;101793.13;5064657;28;20025;-70
2023/11/22 02:32:33;;;;;;;0.50;0.50;;;;;;;0.49;77.75;101788.84;5064433;28;20029;-70
2023/11/22 02:34:58;;;;;;;0.63;0.63;;;;;;;0.54;77.82;101788.19;5046346;28;20021;-69
2023/11/22 02:37:24;;;;;;;1.50;1.40;;;;;;;0.57;77.74;101773.03;5064571;28;20028;-70
2023/11/22 02:40:19;;;;;;;1.65;1.60;;;;;;;0.69;77.23;101763.47;5064468;28;20048;-70
2023/11/22 02:42:58;;;;;;;0.75;0.75;;;;;;;0.57;77.34;101765.34;5057334;28;20079;-69
2023/11/22 02:45:28;;;;;;;1.50;1.40;;;;;;;0.48;77.63;101741.06;5046851;28;20021;-69
2023/11/22 02:47:53;;;;;;;0.60;0.60;;;;;;;0.56;77.34;101738.06;5064351;28;20029;-69
2023/11/22 02:50:19;;;;;;;0.50;0.50;;;;;;;0.53;77.34;101735.34;5064685;28;20048;-69
2023/11/22 02:52:44;;;;;;;0.98;0.98;;;;;;;0.49;77.44;101722.38;5064204;28;20491;-68
2023/11/22 02:55:10;;;;;;;1.13;0.95;;;;;;;0.48;77.68;101733.38;5046416;28;20078;-68
2023/11/22 02:57:36;;;;;;;0.40;0.40;;;;;;;0.46;77.95;101732.41;5064281;28;20048;-69
2023/11/22 03:00:04;;;;;;;0.50;0.50;;;;;;;0.46;78.10;101726.44;5064121;28;20029;-69
2023/11/22 03:02:29;;;;;;;1.95;0.80;;;;;;;0.42;77.83;101725.38;5064073;28;20025;-70
2023/11/22 03:04:54;;;;;;;0.60;0.60;;;;;;;0.41;78.07;101717.66;5064315;28;20135;-70
2023/11/22 03:07:20;;;;;;;0.40;0.40;;;;;;;0.43;77.87;101726.28;5064204;28;20029;-70
2023/11/22 03:09:46;;;;;;;0.75;0.57;;;;;;;0.36;78.05;101727.63;5046555;28;20021;-69
2023/11/22 03:12:12;;;;;;;1.35;1.25;;;;;;;0.26;78.24;101725.34;5063995;28;20069;-69
2023/11/22 03:14:39;;;;;;;0.75;0.75;;;;;;;0.26;78.50;101728.78;5064151;28;20389;-69
2023/11/22 03:17:05;;;;;;;0.93;0.93;;;;;;;0.22;78.65;101712.38;5064108;28;20112;-70
2023/11/22 03:19:30;;;;;;;0.40;0.40;;;;;;;0.32;78.71;101706.13;5064146;28;20084;-69
2023/11/22 03:21:58;;;;;;;1.73;1.63;;;;;;;0.34;78.24;101684.09;5063986;28;20017;-68
2023/11/22 03:24:24;;;;;;;0.50;0.50;;;;;;;0.32;78.66;101688.22;5064101;28;20028;-70
2023/11/22 03:26:49;;;;;;;1.02;0.77;;;;;;;0.27;78.80;101681.13;5045954;28;20036;-70
2023/11/22 03:29:18;;;;;;;0.93;0.85;;;;;;;0.31;78.96;101680.47;5046257;28;20027;-71
2023/11/22 03:31:44;;;;;;;1.55;1.45;;;;;;;0.23;79.23;101673.28;5049285;28;20025;-70
2023/11/22 03:34:09;;;;;;;0.60;0.60;;;;;;;0.32;78.76;101664.38;5067744;28;20132;-69
2023/11/22 03:36:34;;;;;;;1.42;1.33;;;;;;;0.35;78.74;101659.44;5067357;28;20045;-70
2023/11/22 03:39:00;;;;;;;0.73;0.65;;;;;;;0.26;78.85;101647.03;5067498;28;20040;-70
2023/11/22 03:41:25;;;;;;;0.50;0.50;;;;;;;0.24;79.25;101657.16;5049569;28;20025;-70
2023/11/22 03:43:50;;;;;;;1.48;1.40;;;;;;;0.23;79.27;101640.09;5067641;28;20025;-69
2023/11/22 03:46:16;;;;;;;0.60;0.60;;;;;;;0.23;79.57;101640.09;5067506;28;20028;-70
2023/11/22 03:48:41;;;;;;;0.57;0.57;;;;;;;0.23;79.71;101659.63;5066981;28;20029;-70
2023/11/22 03:51:06;;;;;;;1.13;1.13;;;;;;;0.23;79.70;101655.41;5067354;28;20081;-70
2023/11/22 03:53:32;;;;;;;1.55;1.45;;;;;;;0.28;79.84;101662.44;5049699;28;20561;-70
2023/11/22 03:55:57;;;;;;;0.98;0.88;;;;;;;0.20;80.12;101660.34;5068046;28;20048;-69
2023/11/22 03:58:22;;;;;;;0.88;0.88;;;;;;;0.14;80.30;101639.59;5068140;28;20060;-69
2023/11/22 04:00:48;;;;;;;0.85;0.85;;;;;;;0.21;80.38;101662.09;5066877;28;20048;-69
2023/11/22 04:03:13;;;;;;;0.52;0.52;;;;;;;0.20;80.31;101644.16;5067233;28;20028;-70
2023/11/22 04:05:39;;;;;;;0.57;0.57;;;;;;;0.19;80.53;101637.28;5067075;28;20168;-70
2023/11/22 04:08:04;;;;;;;0.50;0.50;;;;;;;0.20;80.60;101632.25;5067134;28;20323;-69
2023/11/22 04:10:30;;;;;;;0.60;0.60;;;;;;;0.18;80.70;101640.63;5048706;28;20045;-70
2023/11/22 04:12:56;;;;;;;0.60;0.60;;;;;;;0.14;80.83;101631.94;5049182;28;20017;-70
2023/11/22 04:15:21;;;;;;;0.60;0.60;;;;;;;0.17;80.89;101633.75;5066954;28;20495;-70
2023/11/22 04:17:47;;;;;;;1.17;1.15;;;;;;;0.24;81.15;101626.50;5048947;28;20091;-70
2023/11/22 04:20:14;;;;;;;0.75;0.75;;;;;;;0.19;81.00;101633.03;5066939;28;20148;-70
2023/11/22 04:22:45;;;;;;;0.85;0.85;;;;;;;0.17;81.28;101631.22;5066615;28;20021;-69
2023/11/22 04:25:13;;;;;;;0.60;0.60;;;;;;;0.19;81.35;101612.59;5066905;28;20059;-69
2023/11/22 04:27:38;;;;;;;0.65;0.65;;;;;;;0.27;81.36;101615.59;5066793;28;20028;-69
2023/11/22 04:30:09;;;;;;;1.20;1.05;;;;;;;0.27;81.60;101624.94;5066680;28;20021;-68
2023/11/22 04:32:37;;;;;;;1.50;1.40;;;;;;;0.40;81.34;101600.91;5066431;28;20060;-69
2023/11/22 04:35:06;;;;;;;0.60;0.60;;;;;;;0.31;81.55;101601.28;5066707;28;20021;-69
2023/11/22 04:37:32;;;;;;;1.85;0.88;;;;;;;0.24;81.86;101608.63;5066456;28;20020;-68
2023/11/22 04:40:07;;;;;;;1.08;0.98;;;;;;;0.23;82.04;101598.34;5066286;28;20095;-70
2023/11/22 04:42:32;;;;;;;2.25;2.05;;;;;;;0.22;82.34;101612.78;5064971;28;20069;-68
2023/11/22 04:44:58;;;;;;;0.60;0.60;;;;;;;0.28;82.31;101622.47;5066168;28;20027;-68
2023/11/22 04:47:23;;;;;;;1.00;1.00;;;;;;;0.27;82.36;101607.94;5065920;28;20021;-67
2023/11/22 04:49:48;;;;;;;0.57;0.57;;;;;;;0.44;82.40;101633.47;5066267;28;20110;-68
2023/11/22 04:52:14;;;;;;;0.60;0.60;;;;;;;0.45;82.73;101642.91;5065973;28;20043;-67
2023/11/22 04:54:40;;;;;;;1.10;0.90;;;;;;;0.51;82.54;101634.69;5066036;28;20048;-67
2023/11/22 04:57:05;;;;;;;1.33;1.23;;;;;;;0.46;82.50;101602.09;5066214;28;20028;-68
2023/11/22 04:59:31;;;;;;;2.05;1.95;;;;;;;0.57;82.66;101606.91;5047955;28;20021;-67
2023/11/22 05:01:57;;;;;;;1.15;1.05;;;;;;;0.54;82.86;101591.41;5065847;28;20013;-68
2023/11/22 05:04:22;;;;;;;1.30;0.80;;;;;;;0.55;82.97;101580.38;5066216;28;20024;-67
2023/11/22 05:06:48;;;;;;;0.70;0.70;;;;;;;0.54;83.07;101571.84;5065707;28;20453;-67
2023/11/22 05:09:13;;;;;;;1.65;1.20;;;;;;;0.53;83.59;101554.75;5065871;28;20109;-68
2023/11/22 05:11:41;;;;;;;0.50;0.50;;;;;;;0.58;83.10;101539.66;5065557;28;20111;-68
2023/11/22 05:14:06;;;;;;;0.47;0.47;;;;;;;0.55;83.30;101539.50;5065883;28;20024;-68
2023/11/22 05:16:33;;;;;;;2.30;1.92;;;;;;;0.52;83.48;101537.66;5065618;28;20025;-69
2023/11/22 05:18:58;;;;;;;1.67;1.40;;;;;;;0.47;83.66;101532.31;5065662;28;20028;-69
2023/11/22 05:21:24;;;;;;;0.57;0.57;;;;;;;0.45;83.79;101525.34;5047672;28;20017;-67
2023/11/22 05:23:49;;;;;;;0.60;0.60;;;;;;;0.45;83.98;101508.38;5047358;28;20033;-68
2023/11/22 05:26:14;;;;;;;1.08;1.08;;;;;;;0.43;83.97;101499.72;5065518;28;20103;-68
2023/11/22 05:28:40;;;;;;;1.02;1.02;;;;;;;0.40;84.13;101491.91;5065699;28;20044;-68
2023/11/22 05:31:05;;;;;;;0.50;0.50;;;;;;;0.44;84.13;101504.06;5064926;28;20053;-67
2023/11/22 05:33:32;;;;;;;1.20;1.20;;;;;;;0.42;84.27;101514.97;5047507;28;20049;-68
2023/11/22 05:35:57;;;;;;;1.30;1.20;;;;;;;0.46;84.39;101505.00;5065244;28;20062;-67
2023/11/22 05:38:23;;;;;;;0.80;0.80;;;;;;;0.38;84.59;101516.53;5047190;28;20025;-68
2023/11/22 05:40:48;;;;;;;0.50;0.50;;;;;;;0.42;84.59;101538.88;5047375;28;20027;-68
2023/11/22 05:43:14;;;;;;;0.65;0.65;;;;;;;0.42;84.66;101543.09;5065280;28;20030;-67
2023/11/22 05:45:39;;;;;;;0.40;0.40;;;;;;;0.38;84.62;101531.84;5065355;28;20021;-68
2023/11/22 05:48:05;;;;;;;0.52;0.52;;;;;;;0.38;84.91;101524.19;5064947;28;20078;-67
2023/11/22 05:50:30;;;;;;;1.77;1.25;;;;;;;0.36;84.98;101519.00;5065007;28;20462;-68
2023/11/22 05:52:56;;;;;;;1.00;1.00;;;;;;;0.38;85.05;101515.63;5064350;28;20032;-68
2023/11/22 05:55:22;;;;;;;0.50;0.50;;;;;;;0.37;85.17;101512.19;5065131;28;20025;-68
2023/11/22 05:57:47;;;;;;;0.60;0.60;;;;;;;0.40;85.17;101501.28;5064949;28;20407;-68
2023/11/22 06:00:14;;;;;;;0.55;0.55;;;;;;;0.37;85.29;101514.75;5065214;28;20023;-68
2023/11/22 06:02:39;;;;;;;0.70;0.70;;;;;;;0.35;85.39;101509.56;5065026;28;20529;-64
2023/11/22 06:05:08;;;;;;;1.75;1.30;;;;;;;0.36;85.53;101510.44;5064964;28;20028;-65
2023/11/22 06:07:33;;;;;;;0.93;0.93;;;;;;;0.39;85.65;101531.03;5065136;28;20105;-65
2023/11/22 06:09:58;;;;;;;2.88;2.08;;;;;;;0.40;85.85;101520.00;5046991;28;20017;-64
2023/11/22 06:12:24;;;;;;;0.60;0.60;;;;;;;0.47;85.95;101514.44;5064816;28;20049;-64
2023/11/22 06:14:49;;;;;;;1.05;1.05;;;;;;;0.38;86.01;101492.66;5065163;28;20035;-65
2023/11/22 06:17:15;;;;;;;1.02;1.02;;;;;;;0.48;86.15;101512.75;5064912;28;20028;-65
2023/11/22 06:19:43;;;;;;;1.10;0.95;;;;;;;0.53;86.20;101508.75;5064925;28;20432;-64
2023/11/22 06:22:09;;;;;;;1.35;1.25;;;;;;;0.56;86.29;101521.69;5046794;28;20052;-64
2023/11/22 06:24:35;;;;;;;0.65;0.65;;;;;;;0.57;86.47;101517.47;5064917;28;20029;-64
2023/11/22 06:27:01;;;;;;;1.17;1.10;;;;;;;0.55;86.52;101501.16;5064848;28;20028;-65
2023/11/22 06:29:27;;;;;;;0.80;0.60;;;;;;;0.60;86.58;101504.84;5046855;28;20028;-65
2023/11/22 06:31:52;;;;;;;0.90;0.90;;;;;;;0.63;86.53;101489.66;5064561;28;20017;-66
2023/11/22 06:34:17;;;;;;;0.88;0.88;;;;;;;0.76;86.40;101498.81;5065070;28;20067;-65
2023/11/22 06:36:43;;;;;;;2.33;1.83;;;;;;;0.78;86.46;101501.44;5046625;28;20025;-66
2023/11/22 06:39:09;;;;;;;1.20;1.13;;;;;;;0.84;86.57;101486.41;5065203;28;20017;-66
2023/11/22 06:41:34;;;;;;;1.35;1.25;;;;;;;0.91;86.51;101483.34;5065237;28;20075;-66
2023/11/22 06:44:00;;;;;;;1.17;1.17;;;;;;;0.99;86.61;101474.34;5046867;28;20021;-65
2023/11/22 06:46:25;;;;;;;0.50;0.50;;;;;;;1.16;86.83;101456.41;5064650;28;20024;-65
2023/11/22 06:48:51;;;;;;;0.90;0.90;;;;;;;1.32;87.16;101452.00;5064715;28;20031;-65
2023/11/22 06:51:18;;;;;;;1.25;1.17;;;;;;;1.51;87.52;101443.47;5064766;28;20021;-65
2023/11/22 06:53:43;;;;;;;1.38;1.33;;;;;;;1.71;87.30;101439.25;5046560;28;20044;-66
2023/11/22 06:56:09;;;;;;;1.23;1.13;;;;;;;1.90;86.68;101439.22;5064460;28;20054;-66
2023/11/22 06:58:34;;;;;;;0.55;0.55;;;;;;;2.13;85.81;101449.56;5064703;28;20049;-65
2023/11/22 07:01:01;;;;;;;1.13;0.82;;;;;;;2.31;84.90;101439.25;5064560;28;20029;-65
2023/11/22 07:03:26;;;;;;;3.00;1.67;;;;;;;2.45;83.49;101439.81;5064861;28;20017;-66
2023/11/22 07:05:51;;;;;;;0.77;0.77;;;;;;;2.56;81.99;101437.69;5066516;28;20027;-65
2023/11/22 07:08:17;;;;;;;1.15;1.02;;;;;;;2.69;80.90;101442.53;5068382;28;20085;-65
2023/11/22 07:10:42;;;;;;;0.50;0.50;;;;;;;2.80;80.09;101422.44;5068280;28;20045;-66
2023/11/22 07:13:07;;;;;;;0.68;0.68;;;;;;;2.86;78.71;101421.78;5068489;28;20076;-65
2023/11/22 07:15:33;;;;;;;1.15;1.02;;;;;;;2.96;77.95;101430.75;5068547;28;20028;-65
2023/11/22 07:17:59;;;;;;;2.65;2.45;;;;;;;3.02;77.83;101427.56;5068247;28;20025;-66
2023/11/22 07:20:24;;;;;;;3.83;1.25;;;;;;;3.09;77.19;101422.72;5050575;28;20025;-67
2023/11/22 07:22:54;;;;;;;1.95;1.08;;;;;;;3.13;76.75;101408.28;5068323;28;20044;-66
2023/11/22 07:25:24;;;;;;;2.05;1.90;;;;;;;3.23;76.82;101422.38;5068485;28;20024;-66
2023/11/22 07:27:50;;;;;;;0.85;0.85;;;;;;;3.28;76.24;101410.59;5049973;28;20082;-66
2023/11/22 07:30:19;;;;;;;0.80;0.80;;;;;;;3.28;75.83;101400.31;5068195;28;20033;-66
2023/11/22 07:32:44;;;;;;;0.73;0.73;;;;;;;3.39;75.90;101398.16;5067944;28;20021;-66
2023/11/22 07:35:10;;;;;;;0.70;0.70;;;;;;;3.40;75.28;101392.22;5068295;28;20035;-66
2023/11/22 07:37:44;;;;;;;0.50;0.50;;;;;;;3.43;74.61;101400.03;5068032;28;20094;-66
2023/11/22 07:40:12;;;;;;;2.53;0.98;;;;;;;3.47;74.18;101401.00;5068142;28;20492;-66
2023/11/22 07:42:37;;;;;;;1.23;1.23;;;;;;;3.49;73.80;101398.50;5067835;28;20074;-65
2023/11/22 07:45:03;;;;;;;0.98;0.98;;;;;;;3.61;73.36;101395.50;5049819;28;20051;-64
2023/11/22 07:47:29;;;;;;;0.50;0.50;;;;;;;3.54;73.02;101387.59;5067693;28;20069;-65
2023/11/22 07:49:57;;;;;;;0.50;0.50;;;;;;;3.56;73.03;101393.63;5067724;28;20021;-65
2023/11/22 07:52:29;;;;;;;0.95;0.95;;;;;;;3.56;72.54;101395.34;5067399;28;20029;-65
2023/11/22 07:54:55;;;;;;;;;;;;;;;3.68;71.93;101388.09;5068135;28;20044;-64
2023/11/22 07:57:20;;;;;;;1.45;1.17;;;;;;;3.66;72.23;101383.72;5049806;28;19913;-64
2023/11/22 07:59:47;;;;;;;0.60;0.60;;;;;;;3.68;72.30;101382.94;5067589;28;20358;-65
2023/11/22 08:02:12;;;;;;;1.35;1.27;;;;;;;3.74;72.29;101379.72;5067424;28;20028;-65
2023/11/22 08:04:38;;;;;;;1.30;1.30;;;;;;;3.76;72.18;101375.50;5067603;28;20029;-65
2023/11/22 08:07:04;;;;;;;4.32;1.70;;;;;;;3.79;71.35;101361.88;5067363;28;20027;-65
2023/11/22 08:09:32;;;;;;;1.20;1.02;;;;;;;3.68;71.12;101341.84;5067188;28;20044;-65
2023/11/22 08:12:02;;;;;;;0.60;0.60;;;;;;;3.79;70.73;101356.75;5067147;28;20052;-66
2023/11/22 08:14:28;;;;;;;1.35;1.25;;;;;;;3.81;70.06;101360.25;5049407;28;20369;-65
2023/11/22 08:16:54;;;;;;;0.60;0.60;;;;;;;3.82;69.73;101346.59;5066814;28;20048;-66
2023/11/22 08:19:19;;;;;;;0.60;0.60;;;;;;;3.88;69.45;101353.66;5049287;28;20032;-66
2023/11/22 08:21:45;;;;;;;0.52;0.52;;;;;;;3.88;69.38;101336.53;5067202;28;20021;-66
2023/11/22 08:24:12;;;;;;;0.55;0.55;;;;;;;3.92;69.45;101346.09;5067205;28;20021;-65
2023/11/22 08:26:38;;;;;;;0.60;0.60;;;;;;;3.89;69.58;101330.56;5106027;22;20045;-63
2023/11/22 08:29:04;;;;;;;0.70;0.70;;;;;;;3.92;69.41;101328.09;5076810;22;20049;-68
2023/11/22 08:31:30;;;;;;;7.28;0.77;;;;;;;3.91;69.52;101307.50;5065813;28;20052;-68
2023/11/22 08:33:56;;;;;;;0.75;0.50;;;;;;;3.92;69.48;101287.00;5065810;28;20024;-70
2023/11/22 08:36:23;;;;;;;0.95;0.63;;;;;;;3.90;69.71;101291.22;5066710;28;20079;-68
2023/11/22 08:38:48;;;;;;;1.58;0.82;;;;;;;3.88;69.68;101292.00;5066714;28;20021;-68
2023/11/22 08:41:14;;;;;;;1.70;0.70;;;;;;;3.93;69.49;101281.03;5066622;28;20017;-69
2023/11/22 08:43:40;;;;;;;0.50;0.50;;;;;;;3.93;69.46;101277.59;5066561;28;20470;-68
2023/11/22 08:46:06;;;;;;;0.55;0.55;;;;;;;3.91;69.53;101249.31;5066262;28;20033;-67
2023/11/22 08:48:32;;;;;;;0.93;0.90;;;;;;;3.95;69.23;101240.84;5048633;28;20021;-68
2023/11/22 08:50:58;;;;;;;2.13;1.95;;;;;;;4.04;69.13;101245.41;5066629;28;20063;-68
2023/11/22 08:53:24;;;;;;;3.75;0.88;;;;;;;3.97;69.07;101234.06;5066245;28;20094;-68
2023/11/22 08:55:49;;;;;;;0.93;0.80;;;;;;;4.06;69.13;101238.63;5071092;22;20049;-65
2023/11/22 08:58:15;;;;;;;0.60;0.60;;;;;;;4.03;69.66;101235.06;5057999;23;20050;-68
2023/11/22 09:00:44;;;;;;;0.50;0.50;;;;;;;4.00;70.03;101232.41;5028290;28;20025;-68
2023/11/22 09:03:13;;;;;;;1.90;1.80;;;;;;;4.01;70.10;101229.88;5045881;28;20037;-68
2023/11/22 09:05:39;;;;;;;2.53;1.20;;;;;;;4.03;70.29;101209.38;5046315;28;20025;-69
2023/11/22 09:08:05;;;;;;;0.82;0.77;;;;;;;4.11;70.60;101197.66;5051095;23;20060;-65
2023/11/22 09:10:30;;;;;;;1.45;1.35;;;;;;;4.12;70.57;101193.41;5046539;28;20215;-64
2023/11/22 09:12:59;;;;;;;0.57;0.57;;;;;;;4.07;70.80;101186.41;5028146;28;20021;-65
2023/11/22 09:15:26;;;;;;;0.80;0.80;;;;;;;4.06;70.83;101191.50;5046501;28;20026;-66
2023/11/22 09:17:53;;;;;;;1.20;0.77;;;;;;;4.07;71.28;101167.56;5046139;28;20028;-64
2023/11/22 09:20:19;;;;;;;6.75;1.63;;;;;;;4.07;71.42;101144.44;5046271;28;20022;-64
2023/11/22 09:22:50;;;;;;;0.45;0.45;;;;;;;4.07;71.47;101137.56;5046165;28;20021;-65
2023/11/22 09:25:22;;;;;;;1.27;1.17;;;;;;;4.13;71.17;101129.19;5046077;28;20026;-66
2023/11/22 09:27:51;;;;;;;3.03;1.75;;;;;;;4.13;71.12;101128.31;5045204;28;20025;-65
2023/11/22 09:30:32;;;;;;;2.35;1.75;;;;;;;4.10;71.30;101116.25;5045937;28;20025;-64
2023/11/22 09:32:59;;;;;;;1.13;1.08;;;;;;;4.17;71.25;101095.03;5044403;28;20017;-65
2023/11/22 09:35:25;;;;;;;0.93;0.93;;;;;;;4.11;71.14;101082.00;5045836;28;20485;-65
2023/11/22 09:37:51;;;;;;;0.70;0.70;;;;;;;4.15;71.10;101072.69;5045886;28;20393;-66
2023/11/22 09:40:17;;;;;;;1.60;1.48;;;;;;;4.18;71.12;101081.38;5045580;28;20628;-65
2023/11/22 09:42:50;;;;;;;1.27;1.23;;;;;;;4.20;70.99;101078.84;5044288;28;20021;-64
2023/11/22 09:45:18;;;;;;;1.35;1.25;;;;;;;4.16;71.03;101062.47;5045843;28;20120;-64
2023/11/22 09:47:44;;;;;;;4.10;1.90;;;;;;;4.21;70.87;101049.72;5045500;28;20022;-65
2023/11/22 09:50:19;;;;;;;0.85;0.70;;;;;;;4.16;70.78;101049.59;5045775;28;20041;-65
2023/11/22 09:52:49;;;;;;;0.60;0.60;;;;;;;4.16;70.98;101044.47;5045369;28;20048;-65
2023/11/22 09:55:15;;;;;;;1.10;1.05;;;;;;;4.21;71.18;101011.19;5045804;28;20037;-65
2023/11/22 09:57:41;;;;;;;0.70;0.70;;;;;;;4.18;71.05;101014.56;5045468;28;20029;-65
2023/11/22 10:00:13;;;;;;;0.65;0.60;;;;;;;4.20;70.94;101020.59;5045941;28;20017;-64
2023/11/22 10:02:40;;;;;;;0.60;0.60;;;;;;;4.22;70.87;101006.09;5045193;28;20017;-64
2023/11/22 10:05:06;;;;;;;0.98;0.98;;;;;;;4.22;70.96;101007.78;5044278;28;20056;-64
2023/11/22 10:07:36;;;;;;;0.98;0.70;;;;;;;4.22;71.11;100993.22;5045093;28;20021;-64
2023/11/22 10:10:05;;;;;;;1.80;1.13;;;;;;;4.25;71.22;100986.44;5045493;28;20025;-64
2023/11/22 10:12:30;;;;;;;4.88;1.48;;;;;;;4.25;71.57;100971.88;5045219;28;20025;-63
2023/11/22 10:15:11;;;;;;;0.90;0.90;;;;;;;4.22;71.79;100982.94;5045385;28;20086;-64
2023/11/22 10:17:36;;;;;;;2.15;1.52;;;;;;;4.26;71.95;100965.03;5045232;28;20025;-65
2023/11/22 10:20:02;;;;;;;1.40;0.93;;;;;;;4.28;72.03;100945.41;5044564;28;20025;-65
2023/11/22 10:22:27;;;;;;;1.52;1.13;;;;;;;4.28;72.02;100953.97;5045225;28;20465;-66
2023/11/22 10:24:55;;;;;;;4.32;0.80;;;;;;;4.27;71.99;100951.34;5045204;28;20103;-65
2023/11/22 10:27:20;;;;;;;0.65;0.65;;;;;;;4.32;72.00;100942.94;5045133;28;20061;-65
2023/11/22 10:29:48;;;;;;;0.82;0.80;;;;;;;4.35;72.04;100944.72;5045099;28;20083;-65
2023/11/22 10:32:13;;;;;;;0.60;0.60;;;;;;;4.38;71.91;100923.38;5044912;28;20022;-65
2023/11/22 10:34:39;;;;;;;0.50;0.50;;;;;;;4.35;72.07;100934.44;5045013;28;20311;-65
2023/11/22 10:37:04;;;;;;;6.53;2.05;;;;;;;4.44;71.86;100920.97;5045174;28;20109;-66
2023/11/22 10:39:30;;;;;;;0.80;0.80;;;;;;;4.48;71.93;100917.63;5044978;28;20029;-64
2023/11/22 10:41:57;;;;;;;0.50;0.50;;;;;;;4.45;71.70;100915.84;5049099;28;20084;-64
2023/11/22 10:44:22;;;;;;;0.40;0.40;;;;;;;4.38;71.18;100934.50;5048987;28;20049;-65
2023/11/22 10:46:48;;;;;;;0.40;0.40;;;;;;;4.46;70.83;100929.56;5048794;28;20026;-65
2023/11/22 10:49:14;;;;;;;1.13;1.02;;;;;;;4.48;70.83;100917.63;5048976;28;20029;-65
2023/11/22 10:51:41;;;;;;;0.50;0.50;;;;;;;4.54;70.72;100906.59;5048889;28;20033;-64
2023/11/22 10:54:07;;;;;;;0.50;0.50;;;;;;;4.52;70.31;100905.72;5049014;28;20030;-64
2023/11/22 10:56:41;;;;;;;0.50;0.50;;;;;;;4.58;69.85;100911.00;5048798;28;20045;-65
2023/11/22 10:59:16;;;;;;;0.60;0.60;;;;;;;4.60;69.22;100914.47;5048690;28;20100;-64
2023/11/22 11:01:47;;;;;;;1.95;1.08;;;;;;;4.59;69.30;100882.75;5048641;28;20021;-64
2023/11/22 11:04:19;;;;;;;;;;;;;;;4.64;68.76;100846.84;5047970;28;20040;-64
2023/11/22 11:06:50;;;;;;;2.25;2.10;;;;;;;4.61;68.99;100843.34;5048509;28;19909;-66
2023/11/22 11:09:21;;;;;;;7.68;0.70;;;;;;;4.63;68.80;100819.41;5048392;28;20041;-67
2023/11/22 11:11:46;;;;;;;0.90;0.90;;;;;;;4.66;68.90;100788.63;5047142;28;20036;-65
2023/11/22 11:14:15;;;;;;;0.85;0.70;;;;;;;4.63;68.99;100809.13;5048425;28;20025;-64
2023/11/22 11:16:46;;;;;;;0.50;0.50;;;;;;;4.63;68.87;100792.81;5048329;28;20036;-64
2023/11/22 11:19:13;;;;;;;0.50;0.50;;;;;;;4.69;68.57;100791.25;5048398;28;20021;-66
2023/11/22 11:21:39;;;;;;;0.65;0.65;;;;;;;4.64;68.89;100787.69;5048499;28;20029;-66
2023/11/22 11:24:05;;;;;;;0.70;0.70;;;;;;;4.66;69.69;100770.63;5048494;28;20025;-64
2023/11/22 11:26:37;;;;;;;0.82;0.82;;;;;;;4.65;70.01;100743.13;5047028;28;20029;-64
2023/11/22 11:29:04;;;;;;;0.65;0.65;;;;;;;4.62;70.64;100770.50;5048027;28;20022;-65
2023/11/22 11:31:36;;;;;;;0.50;0.50;;;;;;;4.51;71.12;100783.97;5047997;28;20048;-65